FW4153 Weather Reports


time (UTC)temp
C
wind
direction
speed
KPH
gust
KPH
rain 1hr
cm
rain 24hr
cm
rain mn
cm
humidity
%
barometer
mb
20200229104018 13 337 3.2 3.2 0.00 0.00 0.00 49 1013.8
20200229103018 13 337 3.2 4.8 0.00 0.00 0.00 47 1013.9
20200229102023 13 337 3.2 4.8 0.00 0.00 0.00 50 1013.9
20200229101020 13 337 4.8 4.8 0.00 0.00 0.00 52 1014.1
20200229100017 14 337 1.6 3.2 0.00 0.00 0.00 47 1014.0
20200229095016 14 0.0 3.2 0.00 0.00 0.00 47 1014.2
20200229094017 14 337 4.8 6.4 0.00 0.00 0.00 46 1014.0
20200229093020 14 337 4.8 6.4 0.00 0.00 0.00 45 1013.9
20200229092017 15 22 3.2 4.8 0.00 0.00 0.00 45 1014.1
20200229091020 15 22 3.2 4.8 0.00 0.00 0.00 44 1014.5
20200229090018 15 0 4.8 6.4 0.00 0.00 0.00 44 1014.6
20200229085016 14 0 3.2 4.8 0.00 0.00 0.00 49 1014.8
20200229084019 14 0 1.6 3.2 0.00 0.00 0.00 52 1015.1
20200229083016 15 0 1.6 3.2 0.00 0.00 0.00 50 1015.1
20200229082020 16 0 3.2 3.2 0.00 0.00 0.00 45 1015.3
20200229081016 17 0 1.6 3.2 0.00 0.00 0.00 42 1015.5
20200229080016 17 0 1.6 4.8 0.00 0.00 0.00 42 1015.4
20200229075016 16 0 1.6 4.8 0.00 0.00 0.00 42 1015.6
20200229074017 17 0.0 1.6 0.00 0.00 0.00 42 1016.0
20200229073015 17 0 3.2 4.8 0.00 0.00 0.00 42 1015.9
20200229072017 17 0 3.2 4.8 0.00 0.00 0.00 41 1016.0
20200229071017 17 0 4.8 6.4 0.00 0.00 0.00 39 1016.2
20200229070019 17 337 3.2 4.8 0.00 0.00 0.00 42 1016.3
20200229065017 17 337 3.2 4.8 0.00 0.00 0.00 42 1016.3
20200229064022 17 337 3.2 4.8 0.00 0.00 0.00 42 1016.2
20200229063018 17 337 4.8 6.4 0.00 0.00 0.00 41 1016.1
20200229062016 17 0 3.2 4.8 0.00 0.00 0.00 42 1016.1
20200229061017 16 0 3.2 4.8 0.00 0.00 0.00 44 1016.1
20200229060017 16 0 4.8 6.4 0.00 0.00 0.00 49 1016.2
20200229055018 16 67 3.2 3.2 0.00 0.00 0.00 53 1016.5
20200229054015 15 67 1.6 3.2 0.00 0.00 0.00 52 1016.5
20200229053021 16 0.0 3.2 0.00 0.00 0.00 52 1016.6
20200229052021 16 67 1.6 3.2 0.00 0.00 0.00 47 1016.6
20200229051019 16 0.0 0.0 0.00 0.00 0.00 47 1016.4
20200229050015 16 0.0 0.0 0.00 0.00 0.00 51 1016.4
20200229045017 17 67 3.2 4.8 0.00 0.00 0.00 49 1016.4
20200229044017 18 0.0 1.6 0.00 0.00 0.00 41 1016.3
20200229043020 19 67 3.2 4.8 0.00 0.00 0.00 37 1016.3
20200229042016 19 67 4.8 8.0 0.00 0.00 0.00 38 1016.0
20200229041023 19 45 3.2 4.8 0.00 0.00 0.00 38 1016.3
20200229040020 20 337 3.2 4.8 0.00 0.00 0.00 36 1016.4
20200229035016 20 315 3.2 4.8 0.00 0.00 0.00 38 1016.3
20200229034017 19 315 1.6 3.2 0.00 0.00 0.00 37 1016.7
20200229033018 19 315 1.6 3.2 0.00 0.00 0.00 35 1016.4
20200229032018 18 315 3.2 4.8 0.00 0.00 0.00 38 1016.5
20200229031017 19 315 4.8 6.4 0.00 0.00 0.00 37 1016.0
20200229030018 20 202 3.2 4.8 0.00 0.00 0.00 39 1015.7
20200229025017 21 0.0 1.6 0.00 0.00 0.00 30 1015.4
20200229024023 21 135 3.2 4.8 0.00 0.00 0.00 32 1015.1
20200229023022 22 135 3.2 4.8 0.00 0.00 0.00 31 1015.1
20200229022021 22 135 1.6 3.2 0.00 0.00 0.00 27 1015.2
20200229021019 23 135 4.8 6.4 0.00 0.00 0.00 26 1015.0
20200229020020 23 135 4.8 8.0 0.00 0.00 0.00 26 1015.1
20200229012022 25 270 4.8 11.3 0.00 0.00 0.00 24 1015.7
20200229011017 25 157 4.8 8.0 0.00 0.00 0.00 27 1015.6
20200229010017 26 157 6.4 9.7 0.00 0.00 0.00 22 1015.4
20200229005020 26 157 6.4 9.7 0.00 0.00 0.00 19 1015.4
20200229004022 27 157 8.0 11.3 0.00 0.00 0.00 17 1015.3
20200229003019 27 157 9.7 11.3 0.00 0.00 0.00 17 1015.4
20200229002022 27 180 8.0 11.3 0.00 0.00 0.00 16 1015.4
20200229001018 28 180 9.7 16.1 0.00 0.00 0.00 16 1015.3
20200229000019 28 180 11.3 16.1 0.00 0.00 0.00 17 1015.4
20200228235017 28 180 11.3 17.7 0.00 0.00 0.00 19 1015.3
20200228234016 28 180 12.9 19.3 0.00 0.00 0.00 20 1015.3
20200228233019 29 157 12.9 17.7 0.00 0.00 0.00 19 1015.2
20200228232018 28 157 14.5 20.9 0.00 0.00 0.00 18 1015.1
20200228231019 28 157 14.5 20.9 0.00 0.00 0.00 17 1015.1
20200228230018 28 157 16.1 24.1 0.00 0.00 0.00 16 1015.2
20200228225015 29 157 14.5 25.7 0.00 0.00 0.00 14 1015.4
20200228224016 28 157 16.1 25.7 0.00 0.00 0.00 15 1015.5
20200228223018 28 157 14.5 25.7 0.00 0.00 0.00 15 1015.5
20200228222023 28 157 19.3 29.0 0.00 0.00 0.00 15 1015.3
20200228221019 30 157 16.1 22.5 0.00 0.00 0.00 16 1015.4
20200228220017 30 180 9.7 14.5 0.00 0.00 0.00 17 1015.5
20200228215017 30 180 9.7 16.1 0.00 0.00 0.00 16 1015.5
20200228214018 30 202 8.0 12.9 0.00 0.00 0.00 15 1015.4
20200228213020 31 225 11.3 19.3 0.00 0.00 0.00 14 1015.3
20200228212020 31 225 12.9 19.3 0.00 0.00 0.00 13 1015.1
20200228211017 31 225 9.7 17.7 0.00 0.00 0.00 13 1015.1
20200228210021 30 202 8.0 14.5 0.00 0.00 0.00 13 1015.2
20200228205015 30 225 9.7 14.5 0.00 0.00 0.00 13 1015.2
20200228204023 31 202 9.7 19.3 0.00 0.00 0.00 14 1015.2
20200228202019 30 180 11.3 14.5 0.00 0.00 0.00 13 1015.5
20200228201016 30 67 3.2 6.4 0.00 0.00 0.00 14 1015.6
20200228200018 29 157 8.0 17.7 0.00 0.00 0.00 15 1015.7
20200228195022 29 112 4.8 9.7 0.00 0.00 0.00 13 1015.8
20200228194016 29 202 3.2 12.9 0.00 0.00 0.00 14 1016.0
20200228193017 28 112 6.4 11.3 0.00 0.00 0.00 14 1016.2
20200228192018 28 157 8.0 14.5 0.00 0.00 0.00 13 1016.5
20200228191014 28 112 8.0 12.9 0.00 0.00 0.00 13 1016.8
20200228190016 28 135 1.6 8.0 0.00 0.00 0.00 16 1016.9
20200228185017 27 270 3.2 9.7 0.00 0.00 0.00 17 1017.2
20200228184023 27 0 3.2 8.0 0.00 0.00 0.00 19 1017.3
20200228183018 27 157 1.6 4.8 0.00 0.00 0.00 18 1017.5
20200228182017 26 135 3.2 6.4 0.00 0.00 0.00 19 1017.7
20200228181020 25 225 3.2 6.4 0.00 0.00 0.00 21 1017.6
20200228180020 25 247 1.6 4.8 0.00 0.00 0.00 22 1017.6
20200228175021 24 247 3.2 4.8 0.00 0.00 0.00 20 1017.8
20200228174019 23 292 3.2 6.4 0.00 0.00 0.00 21 1017.9
20200228173019 23 315 4.8 6.4 0.00 0.00 0.00 26 1017.9
20200228172021 22 315 3.2 8.0 0.00 0.00 0.00 22 1017.8
20200228171018 22 337 3.2 6.4 0.00 0.00 0.00 24 1017.8
20200228170018 22 0 4.8 9.7 0.00 0.00 0.00 25 1017.7
20200228165018 22 315 4.8 11.3 0.00 0.00 0.00 24 1017.7
20200228164016 21 0 4.8 8.0 0.00 0.00 0.00 22 1017.6
20200228163021 21 67 6.4 12.9 0.00 0.00 0.00 24 1017.3
20200228162018 20 67 8.0 12.9 0.00 0.00 0.00 25 1017.3
20200228161018 19 67 6.4 11.3 0.00 0.00 0.00 38 1017.2
20200228160018 18 67 6.4 11.3 0.00 0.00 0.00 48 1017.3
20200228155016 17 112 1.6 4.8 0.00 0.00 0.00 55 1017.3
20200228154018 16 0.0 1.6 0.00 0.00 0.00 55 1017.4
20200228153018 16 202 1.6 4.8 0.00 0.00 0.00 55 1017.1
20200228152018 15 157 1.6 3.2 0.00 0.00 0.00 59 1017.1
20200228151018 15 0.0 1.6 0.00 0.00 0.00 61 1017.1
20200228150018 14 157 1.6 4.8 0.00 0.00 0.00 57 1017.0
20200228145018 13 337 4.8 9.7 0.00 0.00 0.00 58 1016.9
20200228144022 13 337 1.6 4.8 0.00 0.00 0.00 58 1016.5
20200228143018 12 315 1.6 4.8 0.00 0.00 0.00 59 1016.5
20200228142019 12 315 1.6 4.8 0.00 0.00 0.00 59 1016.2
20200228141017 12 315 1.6 3.2 0.00 0.00 0.00 55 1015.8
20200228140017 13 315 4.8 8.0 0.00 0.00 0.00 60 1015.9
20200228135018 13 315 3.2 4.8 0.00 0.00 0.00 60 1015.4
20200228134024 12 292 3.2 4.8 0.00 0.00 0.00 58 1015.3
20200228133018 12 292 1.6 3.2 0.00 0.00 0.00 53 1015.5
20200228132017 12 292 1.6 4.8 0.00 0.00 0.00 49 1015.6
20200228131017 12 292 1.6 3.2 0.00 0.00 0.00 54 1015.6
20200228130018 11 292 1.6 3.2 0.00 0.00 0.00 48 1015.6
20200228125017 12 0.0 3.2 0.00 0.00 0.00 56 1015.6
20200228124019 12 292 1.6 4.8 0.00 0.00 0.00 53 1015.5
20200228123018 12 0.0 0.0 0.00 0.00 0.00 42 1015.4
20200228122016 12 0.0 3.2 0.00 0.00 0.00 52 1015.3
20200228121018 12 292 3.2 4.8 0.00 0.00 0.00 53 1015.3
20200228120017 12 292 1.6 3.2 0.00 0.00 0.00 50 1015.3
20200228115016 12 0.0 1.6 0.00 0.00 0.00 51 1015.4
20200228114017 12 0.0 0.0 0.00 0.00 0.00 49 1015.2
20200228113016 12 0.0 0.0 0.00 0.00 0.00 46 1015.2
20200228112018 12 0.0 1.6 0.00 0.00 0.00 48 1015.0
20200228111017 12 292 1.6 3.2 0.00 0.00 0.00 49 1014.7
20200228110018 12 292 3.2 4.8 0.00 0.00 0.00 48 1014.6
20200228105019 12 292 4.8 6.4 0.00 0.00 0.00 47 1014.6